createdAt,value
2023-04-19T00:01:32.632Z,98448.66
2023-04-19T00:04:06.261Z,98452.78
2023-04-19T00:06:42.215Z,98449.84
2023-04-19T00:09:15.335Z,98449.66
2023-04-19T00:11:48.327Z,98449.91
2023-04-19T00:14:21.445Z,98441.97
2023-04-19T00:16:54.526Z,98448.34
2023-04-19T00:19:27.706Z,98448.63
2023-04-19T00:22:02.161Z,98448.63
2023-04-19T00:24:35.175Z,98440.91
2023-04-19T00:27:08.156Z,98441.03
2023-04-19T00:29:41.283Z,98450.88
2023-04-19T00:32:14.415Z,98445.56
2023-04-19T00:34:47.501Z,98436.72
2023-04-19T00:37:21.971Z,98432.69
2023-04-19T00:39:54.975Z,98434.59
2023-04-19T00:42:28.028Z,98435.47
2023-04-19T00:45:01.064Z,98437.00
2023-04-19T00:47:34.126Z,98431.00
2023-04-19T00:50:09.307Z,98432.81
2023-04-19T00:52:43.797Z,98429.25
2023-04-19T00:55:17.068Z,98428.03
2023-04-19T00:57:51.918Z,98427.84
2023-04-19T01:00:24.979Z,98418.50
2023-04-19T01:02:58.272Z,98423.19
2023-04-19T01:05:32.008Z,98416.47
2023-04-19T01:08:06.865Z,98420.84
2023-04-19T01:10:39.864Z,98422.59
2023-04-19T01:13:13.247Z,98420.66
2023-04-19T01:15:46.451Z,98417.16
2023-04-19T01:18:20.013Z,98415.25
2023-04-19T01:20:53.213Z,98416.28
2023-04-19T01:23:27.743Z,98410.56
2023-04-19T01:26:01.390Z,98416.41
2023-04-19T01:28:34.776Z,98413.75
2023-04-19T01:31:07.865Z,98416.28
2023-04-19T01:33:40.968Z,98403.31
2023-04-19T01:36:14.050Z,98401.16
2023-04-19T01:38:48.537Z,98403.31
2023-04-19T01:41:22.765Z,98402.38
2023-04-19T01:43:55.846Z,98395.97
2023-04-19T01:46:28.959Z,98395.09
2023-04-19T01:49:02.036Z,98389.78
2023-04-19T01:51:35.042Z,98392.34
2023-04-19T01:54:09.357Z,98391.81
2023-04-19T01:56:42.375Z,98388.44
2023-04-19T01:59:15.396Z,98396.19
2023-04-19T02:01:48.435Z,98388.19
2023-04-19T02:04:22.520Z,98390.66
2023-04-19T02:06:55.671Z,98381.72
2023-04-19T02:09:30.063Z,98377.56
2023-04-19T02:12:03.151Z,98379.94
2023-04-19T02:14:37.130Z,98378.50
2023-04-19T02:17:10.149Z,98378.06
2023-04-19T02:19:43.202Z,98372.94
2023-04-19T02:22:16.356Z,98365.47
2023-04-19T02:24:52.001Z,98360.81
2023-04-19T02:27:25.021Z,98367.53
2023-04-19T02:29:58.058Z,98363.31
2023-04-19T02:32:31.969Z,98362.69
2023-04-19T02:35:05.840Z,98358.31
2023-04-19T02:37:38.880Z,98355.09
2023-04-19T02:40:13.489Z,98358.34
2023-04-19T02:42:46.480Z,98354.84
2023-04-19T02:45:19.515Z,98355.97
2023-04-19T02:47:52.732Z,98354.84
2023-04-19T02:50:25.746Z,98354.84
2023-04-19T02:52:59.677Z,98348.19
2023-04-19T02:55:34.440Z,98346.44
2023-04-19T02:58:07.486Z,98341.13
2023-04-19T03:00:40.750Z,98346.31
2023-04-19T03:03:15.512Z,98346.84
2023-04-19T03:05:48.714Z,98344.69
2023-04-19T03:08:21.728Z,98346.97
2023-04-19T03:10:56.189Z,98340.72
2023-04-19T03:13:29.208Z,98336.75
2023-04-19T03:16:02.219Z,98337.63
2023-04-19T03:18:36.390Z,98339.09
2023-04-19T03:21:09.527Z,98345.41
2023-04-19T03:23:42.542Z,98335.69
2023-04-19T03:26:16.881Z,98336.84
2023-04-19T03:28:49.868Z,98337.25
2023-04-19T03:31:22.887Z,98333.03
2023-04-19T03:33:55.928Z,98331.16
2023-04-19T03:36:28.957Z,98326.75
2023-04-19T03:39:03.690Z,98330.56
2023-04-19T03:41:38.021Z,98321.38
2023-04-19T03:44:11.017Z,98317.69
2023-04-19T03:46:46.448Z,98313.50
2023-04-19T03:49:20.042Z,98315.75
2023-04-19T03:51:53.078Z,98316.88
2023-04-19T03:54:26.343Z,98311.91
2023-04-19T03:57:00.676Z,98312.25
2023-04-19T03:59:33.875Z,98313.78
2023-04-19T04:02:07.685Z,98322.91
2023-04-19T04:04:40.991Z,98318.38
2023-04-19T04:07:14.320Z,98320.28
2023-04-19T04:09:47.835Z,98317.47
2023-04-19T04:12:22.232Z,98325.47
2023-04-19T04:14:55.277Z,98319.44
2023-04-19T04:17:28.334Z,98320.31
2023-04-19T04:20:01.605Z,98319.69
2023-04-19T04:22:34.649Z,98323.19
2023-04-19T04:25:09.289Z,98316.22
2023-04-19T04:27:43.991Z,98314.03
2023-04-19T04:30:17.050Z,98321.56
2023-04-19T04:32:51.314Z,98323.78
2023-04-19T04:35:24.685Z,98320.09
2023-04-19T04:37:57.715Z,98320.41
2023-04-19T04:40:30.744Z,98331.19
2023-04-19T04:43:05.635Z,98332.41
2023-04-19T04:45:38.791Z,98334.06
2023-04-19T04:48:11.773Z,98331.06
2023-04-19T04:50:45.346Z,98331.22
2023-04-19T04:53:18.320Z,98330.84
2023-04-19T04:55:51.480Z,98329.81
2023-04-19T04:58:25.926Z,98328.72
2023-04-19T05:00:58.946Z,98333.69
2023-04-19T05:03:32.031Z,98328.47
2023-04-19T05:06:05.614Z,98336.88
2023-04-19T05:08:38.631Z,98332.44
2023-04-19T05:11:12.948Z,98335.63
2023-04-19T05:13:47.383Z,98337.03
2023-04-19T05:16:20.818Z,98336.84
2023-04-19T05:18:53.886Z,98340.56
2023-04-19T05:21:27.204Z,98343.69
2023-04-19T05:24:00.392Z,98338.72
2023-04-19T05:26:33.484Z,98333.84
2023-04-19T05:29:07.865Z,98329.44
2023-04-19T05:31:40.977Z,98335.91
2023-04-19T05:34:14.223Z,98334.75
2023-04-19T05:36:47.649Z,98329.50
2023-04-19T05:39:20.653Z,98337.53
2023-04-19T05:41:53.790Z,98340.00
2023-04-19T05:44:28.154Z,98340.66
2023-04-19T05:47:01.273Z,98331.19
2023-04-19T05:49:34.333Z,98332.88
2023-04-19T05:52:07.421Z,98335.69
2023-04-19T05:54:40.452Z,98343.13
2023-04-19T05:57:13.672Z,98334.41
2023-04-19T05:59:48.284Z,98340.81
2023-04-19T06:02:21.584Z,98337.53
2023-04-19T06:04:54.923Z,98335.13
2023-04-19T06:07:33.939Z,98338.78
2023-04-19T06:10:10.617Z,98338.59
2023-04-19T06:12:43.708Z,98340.22
2023-04-19T06:15:18.443Z,98327.19
2023-04-19T06:17:51.566Z,98333.13
2023-04-19T06:20:24.666Z,98328.06
2023-04-19T06:22:57.697Z,98330.63
2023-04-19T06:25:31.201Z,98326.81
2023-04-19T06:28:04.532Z,98323.75
2023-04-19T06:30:38.914Z,98332.81
2023-04-19T06:33:11.973Z,98333.91
2023-04-19T06:35:44.978Z,98322.50
2023-04-19T06:38:18.001Z,98331.13
2023-04-19T06:40:51.073Z,98332.13
2023-04-19T06:43:24.331Z,98328.78
2023-04-19T06:46:02.110Z,98332.31
2023-04-19T06:48:35.876Z,98332.22
2023-04-19T06:51:09.125Z,98326.50
2023-04-19T06:53:42.221Z,98330.59
2023-04-19T06:56:15.388Z,98331.28
2023-04-19T06:58:48.473Z,98318.41
2023-04-19T07:01:22.857Z,98325.06
2023-04-19T07:03:57.536Z,98340.66
2023-04-19T07:06:30.783Z,98324.53
2023-04-19T07:09:04.535Z,98319.84
2023-04-19T07:11:37.620Z,98322.13
2023-04-19T07:14:10.679Z,98319.34
2023-04-19T07:16:45.074Z,98311.84
2023-04-19T07:19:19.255Z,98309.38
2023-04-19T07:21:52.982Z,98304.19
2023-04-19T07:24:27.918Z,98309.00
2023-04-19T07:27:01.823Z,98307.09
2023-04-19T07:29:36.739Z,98309.63
2023-04-19T07:32:11.261Z,98311.53
2023-04-19T07:34:45.838Z,98306.75
2023-04-19T07:37:18.917Z,98311.78
2023-04-19T07:39:51.938Z,98308.44
2023-04-19T07:42:26.003Z,98297.56
2023-04-19T07:44:59.618Z,98302.28
2023-04-19T07:47:34.231Z,98301.47
2023-04-19T07:50:09.560Z,98298.63
2023-04-19T07:52:42.690Z,98298.03
2023-04-19T07:55:15.766Z,98301.63
2023-04-19T07:57:49.176Z,98298.25
2023-04-19T08:00:22.556Z,98287.66
2023-04-19T08:02:58.214Z,98299.50
2023-04-19T08:05:32.182Z,98300.03
2023-04-19T08:08:05.607Z,98298.63
2023-04-19T08:10:38.692Z,98294.75
2023-04-19T08:13:11.788Z,98296.56
2023-04-19T08:18:22.243Z,98297.19
2023-04-19T08:20:56.617Z,98297.91
2023-04-19T08:23:41.189Z,98294.00
2023-04-19T08:26:20.654Z,98286.25
2023-04-19T08:28:53.661Z,98280.72
2023-04-19T08:31:26.740Z,98279.19
2023-04-19T08:34:02.729Z,98270.66
2023-04-19T08:36:43.407Z,98267.88
2023-04-19T08:39:32.319Z,98273.34
2023-04-19T08:42:13.380Z,98264.63
2023-04-19T08:45:17.159Z,98259.94
2023-04-19T08:48:00.521Z,98254.31
2023-04-19T08:50:48.457Z,98259.34
2023-04-19T08:53:30.518Z,98257.84
2023-04-19T08:56:15.169Z,98253.41
2023-04-19T08:59:07.515Z,98254.13
2023-04-19T09:01:47.326Z,98251.34
2023-04-19T09:04:34.799Z,98251.88
2023-04-19T09:07:24.237Z,98249.28
2023-04-19T09:10:08.705Z,98249.34
2023-04-19T09:12:42.822Z,98238.69
2023-04-19T09:15:15.863Z,98242.56
2023-04-19T09:18:06.588Z,98236.03
2023-04-19T09:20:41.337Z,98242.03
2023-04-19T09:23:17.945Z,98241.47
2023-04-19T09:26:19.323Z,98228.66
2023-04-19T09:28:58.028Z,98238.50
2023-04-19T09:31:47.952Z,98237.06
2023-04-19T09:34:24.495Z,98232.28
2023-04-19T09:37:11.677Z,98232.69
2023-04-19T09:39:50.962Z,98222.97
2023-04-19T09:42:47.276Z,98229.38
2023-04-19T09:48:04.299Z,98215.56
2023-04-19T09:50:53.640Z,98216.63
2023-04-19T09:53:30.994Z,98211.75
2023-04-19T09:56:06.237Z,98220.53
2023-04-19T09:58:51.064Z,98208.50
2023-04-19T10:01:29.582Z,98208.84
2023-04-19T10:04:14.886Z,98210.59
2023-04-19T10:09:35.614Z,98205.16
2023-04-19T10:12:31.239Z,98206.78
2023-04-19T10:15:07.841Z,98200.66
2023-04-19T10:17:41.264Z,98196.34
2023-04-19T10:20:24.601Z,98196.56
2023-04-19T10:22:58.180Z,98199.22
2023-04-19T10:25:31.818Z,98201.13
2023-04-19T10:28:07.150Z,98197.94
2023-04-19T10:30:55.550Z,98191.84
2023-04-19T10:33:31.595Z,98193.69
2023-04-19T10:36:05.987Z,98189.59
2023-04-19T10:38:41.508Z,98191.03
2023-04-19T10:41:17.402Z,98188.31
2023-04-19T10:44:13.707Z,98189.88
2023-04-19T10:46:48.170Z,98186.94
2023-04-19T10:49:25.016Z,98183.19
2023-04-19T10:52:00.192Z,98177.56
2023-04-19T10:54:36.517Z,98177.91
2023-04-19T10:57:11.378Z,98179.66
2023-04-19T10:59:46.039Z,98169.19
2023-04-19T11:02:30.861Z,98175.19
2023-04-19T11:05:05.467Z,98166.38
2023-04-19T11:07:42.831Z,98164.06
2023-04-19T11:10:30.429Z,98159.50
2023-04-19T11:13:03.638Z,98166.50
2023-04-19T11:15:44.584Z,98164.16
2023-04-19T11:18:19.961Z,98161.19
2023-04-19T11:20:54.637Z,98162.09
2023-04-19T11:23:27.826Z,98161.13
2023-04-19T11:26:00.881Z,98162.78
2023-04-19T11:28:34.783Z,98163.25
2023-04-19T11:31:09.171Z,98161.84
2023-04-19T11:33:45.045Z,98165.28
2023-04-19T11:36:18.023Z,98161.69
2023-04-19T11:38:51.135Z,98165.72
2023-04-19T11:41:24.146Z,98161.25
2023-04-19T11:43:57.277Z,98157.06
2023-04-19T11:46:31.678Z,98155.59
2023-04-19T11:49:04.775Z,98152.72
2023-04-19T11:51:43.255Z,98156.31
2023-04-19T11:54:18.355Z,98149.50
2023-04-19T11:57:06.051Z,98144.72
2023-04-19T11:59:40.078Z,98140.91
2023-04-19T12:02:15.042Z,98143.78
2023-04-19T12:04:48.291Z,98142.03
2023-04-19T12:07:21.963Z,98137.56
2023-04-19T12:09:55.791Z,98138.88
2023-04-19T12:12:34.667Z,98144.72
2023-04-19T12:15:09.224Z,98137.72
2023-04-19T12:20:46.521Z,98147.06
2023-04-19T12:23:21.687Z,98146.97
2023-04-19T12:25:54.652Z,98155.13
2023-04-19T12:28:27.724Z,98146.28
2023-04-19T12:31:00.920Z,98146.28
2023-04-19T12:33:33.991Z,98149.13
2023-04-19T12:36:09.241Z,98148.34
2023-04-19T12:38:42.225Z,98153.75
2023-04-19T12:41:15.329Z,98154.50
2023-04-19T12:43:48.359Z,98147.44
2023-04-19T12:46:21.571Z,98146.44
2023-04-19T12:48:54.674Z,98147.53
2023-04-19T12:51:29.076Z,98144.53
2023-04-19T12:54:02.448Z,98138.31
2023-04-19T12:56:35.960Z,98131.31
2023-04-19T12:59:09.004Z,98140.75
2023-04-19T13:01:42.119Z,98130.63
2023-04-19T13:04:15.957Z,98129.47
2023-04-19T13:06:51.132Z,98128.91
2023-04-19T13:09:24.216Z,98120.84
2023-04-19T13:11:57.825Z,98118.41
2023-04-19T13:14:30.896Z,98119.06
2023-04-19T13:17:03.901Z,98110.44
2023-04-19T13:19:36.940Z,98102.50
2023-04-19T13:22:11.374Z,98102.75
2023-04-19T13:24:44.408Z,98105.50
2023-04-19T13:27:17.476Z,98104.94
2023-04-19T13:29:50.691Z,98105.31
2023-04-19T13:32:24.091Z,98099.41
2023-04-19T13:34:57.248Z,98107.25
2023-04-19T13:37:31.790Z,98101.38
2023-04-19T13:40:18.082Z,98094.34
2023-04-19T13:42:54.285Z,98093.75
2023-04-19T13:45:27.499Z,98089.22
2023-04-19T13:48:00.839Z,98089.72
2023-04-19T13:50:34.067Z,98079.72
2023-04-19T13:53:08.508Z,98077.41
2023-04-19T13:55:41.838Z,98070.31
2023-04-19T13:58:14.917Z,98068.25
2023-04-19T14:00:48.972Z,98069.53
2023-04-19T14:03:23.609Z,98065.19
2023-04-19T14:05:56.855Z,98061.31
2023-04-19T14:08:31.221Z,98056.75
2023-04-19T14:11:04.628Z,98050.13
2023-04-19T14:13:37.788Z,98056.06
2023-04-19T14:16:10.847Z,98054.91
2023-04-19T14:18:43.881Z,98043.91
2023-04-19T14:21:18.196Z,98039.91
2023-04-19T14:23:52.581Z,98040.22
2023-04-19T14:26:27.072Z,98036.72
2023-04-19T14:29:00.634Z,98034.94
2023-04-19T14:31:34.457Z,98031.44
2023-04-19T14:34:07.498Z,98031.44
2023-04-19T14:36:40.598Z,98038.66
2023-04-19T14:39:15.199Z,98037.53
2023-04-19T14:41:48.432Z,98027.41
2023-04-19T14:44:21.501Z,98035.47
2023-04-19T14:46:54.541Z,98032.81
2023-04-19T14:49:27.568Z,98035.72
2023-04-19T14:52:00.604Z,98033.22
2023-04-19T14:54:35.059Z,98029.50
2023-04-19T14:57:08.101Z,98027.31
2023-04-19T14:59:41.152Z,98025.38
2023-04-19T15:02:14.223Z,98031.78
2023-04-19T15:04:47.883Z,98027.53
2023-04-19T15:07:21.534Z,98021.25
2023-04-19T15:09:55.931Z,98023.31
2023-04-19T15:12:29.095Z,98022.06
2023-04-19T15:15:02.380Z,98013.59
2023-04-19T15:17:35.749Z,98013.41
2023-04-19T15:20:10.456Z,98009.38
2023-04-19T15:22:43.482Z,98008.28
2023-04-19T15:25:18.734Z,97998.66
2023-04-19T15:27:51.726Z,97995.56
2023-04-19T15:30:24.752Z,97991.63
2023-04-19T15:32:57.788Z,97989.69
2023-04-19T15:35:32.122Z,97990.56
2023-04-19T15:38:05.189Z,97986.94
2023-04-19T15:40:40.192Z,97983.59
2023-04-19T15:43:13.715Z,97980.88
2023-04-19T15:45:46.753Z,97976.09
2023-04-19T15:48:21.152Z,97983.34
2023-04-19T15:50:54.260Z,97982.69
2023-04-19T15:53:27.343Z,97989.91
2023-04-19T15:56:01.727Z,97982.34
2023-04-19T15:58:34.805Z,97979.16
2023-04-19T16:01:12.421Z,97974.19
2023-04-19T16:03:46.105Z,97972.78
2023-04-19T16:06:19.290Z,97972.22
2023-04-19T16:08:52.360Z,97966.16
2023-04-19T16:11:26.838Z,97969.13
2023-04-19T16:13:59.876Z,97967.56
2023-04-19T16:16:34.352Z,97968.19
2023-04-19T16:19:07.597Z,97966.88
2023-04-19T16:21:41.081Z,97970.56
2023-04-19T16:24:14.155Z,97968.25
2023-04-19T16:26:48.540Z,97964.22
2023-04-19T16:29:21.564Z,97969.94
2023-04-19T16:31:54.704Z,97964.59
2023-04-19T16:34:28.037Z,97963.78
2023-04-19T16:37:01.275Z,97963.88
2023-04-19T16:39:34.535Z,97962.47
2023-04-19T16:42:09.031Z,97970.50
2023-04-19T16:44:42.313Z,97968.41
2023-04-19T16:47:15.469Z,97971.53
2023-04-19T16:49:50.396Z,97966.44
2023-04-19T16:52:23.417Z,97974.13
2023-04-19T16:54:56.428Z,97963.59
2023-04-19T16:57:32.022Z,97965.28
2023-04-19T17:00:06.910Z,97963.69
2023-04-19T17:02:40.232Z,97967.41
2023-04-19T17:05:13.806Z,97965.81
2023-04-19T17:07:46.922Z,97954.88
2023-04-19T17:10:20.017Z,97961.03
2023-04-19T17:12:55.489Z,97960.19
2023-04-19T17:15:28.733Z,97962.47
2023-04-19T17:18:01.780Z,97960.44
2023-04-19T17:20:34.871Z,97965.78
2023-04-19T17:23:07.957Z,97969.31
2023-04-19T17:25:41.307Z,97964.22
2023-04-19T17:28:16.164Z,97960.25
2023-04-19T17:30:49.190Z,97969.31
2023-04-19T17:33:22.182Z,97973.03
2023-04-19T17:35:55.333Z,97964.09
2023-04-19T17:38:28.316Z,97973.19
2023-04-19T17:41:02.752Z,97975.34
2023-04-19T17:43:37.186Z,97980.09
2023-04-19T17:46:11.814Z,97981.28
2023-04-19T17:48:44.857Z,97989.28
2023-04-19T17:51:17.834Z,97991.38
2023-04-19T17:53:51.513Z,97984.13
2023-04-19T17:56:24.887Z,97993.56
2023-04-19T17:59:00.663Z,97992.59
2023-04-19T18:01:34.979Z,97997.53
2023-04-19T18:04:08.223Z,97998.00
2023-04-19T18:06:41.416Z,97996.44
2023-04-19T18:09:14.825Z,97988.88
2023-04-19T18:11:48.599Z,97990.88
2023-04-19T18:14:22.979Z,97997.66
2023-04-19T18:16:56.107Z,97993.66
2023-04-19T18:19:29.259Z,97997.19
2023-04-19T18:22:02.322Z,98006.03
2023-04-19T18:24:35.492Z,98004.03
2023-04-19T18:27:08.505Z,98015.91
2023-04-19T18:29:42.892Z,98009.94
2023-04-19T18:32:15.952Z,98014.25
2023-04-19T18:34:49.080Z,98009.47
2023-04-19T18:37:22.067Z,98013.47
2023-04-19T18:39:55.018Z,98011.63
2023-04-19T18:42:28.043Z,98011.88
2023-04-19T18:45:04.061Z,98016.28
2023-04-19T18:47:37.209Z,98015.22
2023-04-19T18:50:11.906Z,98015.50
2023-04-19T18:52:44.931Z,98024.22
2023-04-19T18:55:17.998Z,98025.56
2023-04-19T18:57:51.058Z,98029.66
2023-04-19T19:00:25.729Z,98027.31
2023-04-19T19:03:00.487Z,98024.53
2023-04-19T19:05:35.430Z,98026.44
2023-04-19T19:08:08.559Z,98024.97
2023-04-19T19:13:17.605Z,98028.72
2023-04-19T19:15:52.061Z,98035.03
2023-04-19T19:18:25.269Z,98042.25
2023-04-19T19:21:00.192Z,98040.38
2023-04-19T19:23:38.347Z,98046.59
2023-04-19T19:26:15.426Z,98047.09
2023-04-19T19:28:48.464Z,98043.13
2023-04-19T19:31:22.919Z,98045.56
2023-04-19T19:34:18.238Z,98047.34
2023-04-19T19:36:49.735Z,98054.44
2023-04-19T19:39:22.771Z,98054.91
2023-04-19T19:42:06.035Z,98051.91
2023-04-19T19:44:39.673Z,98052.25
2023-04-19T19:47:16.922Z,98060.44
2023-04-19T19:50:35.040Z,98061.78
2023-04-19T19:52:44.716Z,98061.78
2023-04-19T19:55:17.908Z,98057.22
2023-04-19T20:03:06.382Z,98060.38
2023-04-19T20:05:40.336Z,98070.09
2023-04-19T20:08:15.369Z,98066.75
2023-04-19T20:10:48.545Z,98065.66
2023-04-19T20:13:21.704Z,98064.97
2023-04-19T20:15:54.722Z,98065.16
2023-04-19T20:18:29.276Z,98068.34
2023-04-19T20:21:02.281Z,98068.63
2023-04-19T20:23:38.749Z,98063.09
2023-04-19T20:26:11.788Z,98071.91
2023-04-19T20:28:44.832Z,98068.78
2023-04-19T20:31:17.875Z,98068.31
2023-04-19T20:33:52.762Z,98070.41
2023-04-19T20:36:27.605Z,98071.13
2023-04-19T20:39:04.943Z,98065.97
2023-04-19T20:41:39.043Z,98066.75
2023-04-19T20:44:12.525Z,98066.53
2023-04-19T20:46:45.828Z,98065.94
2023-04-19T20:49:20.400Z,98064.97
2023-04-19T20:51:53.663Z,98061.94
2023-04-19T20:54:26.785Z,98054.63
2023-04-19T20:57:04.473Z,98067.81
2023-04-19T20:59:39.283Z,98066.19
2023-04-19T21:02:12.351Z,98069.75
2023-04-19T21:04:46.743Z,98065.09
2023-04-19T21:07:20.182Z,98060.78
2023-04-19T21:09:53.248Z,98060.03
2023-04-19T21:12:26.358Z,98049.66
2023-04-19T21:14:59.381Z,98057.00
2023-04-19T21:17:32.431Z,98063.81
2023-04-19T21:20:12.284Z,98059.66
2023-04-19T21:22:47.472Z,98056.13
2023-04-19T21:25:20.652Z,98053.97
2023-04-19T21:27:53.651Z,98054.38
2023-04-19T21:30:26.707Z,98055.78
2023-04-19T21:32:59.762Z,98045.38
2023-04-19T21:35:34.791Z,98041.09
2023-04-19T21:38:07.847Z,98049.19
2023-04-19T21:40:41.049Z,98035.78
2023-04-19T21:43:14.056Z,98038.03
2023-04-19T21:45:47.121Z,98040.47
2023-04-19T21:48:20.162Z,98030.34
2023-04-19T21:50:54.663Z,98028.44
2023-04-19T21:53:27.806Z,98027.31
2023-04-19T21:56:01.642Z,98032.50
2023-04-19T21:58:34.692Z,98033.00
2023-04-19T22:01:07.816Z,98025.53
2023-04-19T22:03:41.004Z,98023.63
2023-04-19T22:06:17.007Z,98027.41
2023-04-19T22:08:50.647Z,98011.59
2023-04-19T22:11:24.041Z,98020.97
2023-04-19T22:13:57.717Z,98011.72
2023-04-19T22:16:32.690Z,98009.69
2023-04-19T22:19:05.898Z,98008.81
2023-04-19T22:21:40.265Z,98005.28
2023-04-19T22:24:13.361Z,98005.13
2023-04-19T22:26:46.364Z,98003.38
2023-04-19T22:29:20.162Z,98004.50
2023-04-19T22:31:53.219Z,98004.72
2023-04-19T22:34:26.277Z,97987.41
2023-04-19T22:37:00.683Z,97995.38
2023-04-19T22:39:33.717Z,97997.13
2023-04-19T22:42:07.228Z,97989.81
2023-04-19T22:44:40.224Z,97980.31
2023-04-19T22:47:13.418Z,97975.88
2023-04-19T22:49:46.442Z,97975.88
2023-04-19T22:52:20.904Z,97980.69
2023-04-19T22:54:53.943Z,97969.44
2023-04-19T22:57:26.940Z,97976.13
2023-04-19T22:59:59.970Z,97965.63
2023-04-19T23:02:33.067Z,97972.44
2023-04-19T23:05:07.539Z,97969.91
2023-04-19T23:07:43.707Z,97967.91
2023-04-19T23:10:18.252Z,97961.31
2023-04-19T23:12:51.317Z,97966.56
2023-04-19T23:15:25.216Z,97974.41
2023-04-19T23:17:59.418Z,97963.56
2023-04-19T23:20:32.890Z,97962.78
2023-04-19T23:23:07.927Z,97964.03
2023-04-19T23:25:41.009Z,97962.13
2023-04-19T23:28:14.080Z,97963.78
2023-04-19T23:30:47.161Z,97959.19
2023-04-19T23:33:20.163Z,97955.41
2023-04-19T23:35:53.189Z,97955.63
2023-04-19T23:38:27.612Z,97951.34
2023-04-19T23:41:00.895Z,97946.91
2023-04-19T23:43:33.975Z,97938.28
2023-04-19T23:46:07.947Z,97938.53
2023-04-19T23:48:41.167Z,97925.66
2023-04-19T23:51:14.201Z,97928.91
2023-04-19T23:53:48.592Z,97930.28
2023-04-19T23:56:21.593Z,97925.34
2023-04-19T23:58:54.733Z,97920.03
